KSMO/SMO METAR and TAF weather

Enter ICAO airport designator
Station Type Date Time Source
KSMO METAR 2019/06/26 05:51 UTC NOAA

KSMO 260551Z AUTO 24004KT 10SM OVC020 17/14 A2994 RMK AO2 SLP139 T01720139 10178 20172 53013


Station Type Date Time Source
KSMO Decoded METAR 2019/06/26 05:51 UTC NOAA

SANTA MONICA MUNICIPAL AIRPORT , CA, United States (KSMO) 34-01N 118-27W 57M
Jun 26, 2019 - 01:51 AM EDT / 2019.06.26 0551 UTC
Wind: from the WSW (240 degrees) at 5 MPH (4 KT):0
Visibility: 10 mile(s):0
Sky conditions: overcast
Temperature: 63.0 F (17.2 C)
Dew Point: 57.0 F (13.9 C)
Relative Humidity: 80%
Pressure (altimeter): 29.94 in. Hg (1013 hPa)
Pressure tendency: 0.04 inches (1.3 hPa) higher than three hours ago
ob: KSMO 260551Z AUTO 24004KT 10SM OVC020 17/14 A2994 RMK AO2 SLP139 T01720139 10178 20172 53013
cycle: 6

Station Type Date Time Source
KSMO TAF 2019/06/26 06:38 UTC NOAA

TAF KSMO 260538Z 2606/2706 VRB03KT P6SM OVC020
FM260800 VRB03KT P6SM BKN015 OVC025
FM261600 23005KT P6SM OVC020
FM262000 23008KT P6SM SCT025
FM270300 24006KT P6SM OVC014

Example: see airport list